createdAt,value
2023-12-16T00:00:11.295Z,6.74
2023-12-16T00:01:11.334Z,6.69
2023-12-16T00:02:11.363Z,6.75
2023-12-16T00:03:11.365Z,6.72
2023-12-16T00:04:11.358Z,6.70
2023-12-16T00:05:11.261Z,6.72
2023-12-16T00:06:11.314Z,6.63
2023-12-16T00:07:11.291Z,6.63
2023-12-16T00:08:11.189Z,6.78
2023-12-16T00:09:11.178Z,6.69
2023-12-16T00:10:11.237Z,6.77
2023-12-16T00:11:11.161Z,6.72
2023-12-16T00:12:11.154Z,6.70
2023-12-16T00:13:11.159Z,6.74
2023-12-16T00:14:11.126Z,6.70
2023-12-16T00:15:11.113Z,6.74
2023-12-16T00:16:11.128Z,6.72
2023-12-16T00:17:11.156Z,6.75
2023-12-16T00:18:11.214Z,6.75
2023-12-16T00:19:11.172Z,6.72
2023-12-16T00:20:11.059Z,6.74
2023-12-16T00:21:11.049Z,6.69
2023-12-16T00:22:11.038Z,6.62
2023-12-16T00:23:11.024Z,6.78
2023-12-16T00:24:11.043Z,6.77
2023-12-16T00:25:11.048Z,6.67
2023-12-16T00:26:10.994Z,6.75
2023-12-16T00:27:10.981Z,6.77
2023-12-16T00:28:11.000Z,6.79
2023-12-16T00:29:10.959Z,6.74
2023-12-16T00:30:11.012Z,6.75
2023-12-16T00:31:11.013Z,6.69
2023-12-16T00:32:10.936Z,6.69
2023-12-16T00:33:10.984Z,6.74
2023-12-16T00:34:10.980Z,6.75
2023-12-16T00:35:10.996Z,6.77
2023-12-16T00:36:10.882Z,6.74
2023-12-16T00:37:10.892Z,6.75
2023-12-16T00:38:10.869Z,6.78
2023-12-16T00:39:10.860Z,6.67
2023-12-16T00:40:10.950Z,6.82
2023-12-16T00:41:10.834Z,6.70
2023-12-16T00:42:10.851Z,6.75
2023-12-16T00:43:10.818Z,6.77
2023-12-16T00:44:10.817Z,6.74
2023-12-16T00:45:10.787Z,6.79
2023-12-16T00:46:10.815Z,6.78
2023-12-16T00:47:10.764Z,6.74
2023-12-16T00:48:10.852Z,6.74
2023-12-16T00:49:10.901Z,6.72
2023-12-16T00:50:10.746Z,6.84
2023-12-16T00:51:10.727Z,6.74
2023-12-16T00:52:10.745Z,6.82
2023-12-16T00:53:10.703Z,6.70
2023-12-16T00:54:10.693Z,6.78
2023-12-16T00:55:10.754Z,6.78
2023-12-16T00:56:10.668Z,6.74
2023-12-16T00:57:10.664Z,6.70
2023-12-16T00:58:10.665Z,6.79
2023-12-16T00:59:10.628Z,6.74
2023-12-16T01:00:10.624Z,6.70
2023-12-16T01:01:10.718Z,6.78
2023-12-16T01:02:10.600Z,6.77
2023-12-16T01:03:10.614Z,6.69
2023-12-16T01:04:10.645Z,6.72
2023-12-16T01:05:10.609Z,6.75
2023-12-16T01:06:10.557Z,6.69
2023-12-16T01:07:10.590Z,6.74
2023-12-16T01:08:10.543Z,6.67
2023-12-16T01:09:10.525Z,6.75
2023-12-16T01:10:10.546Z,6.69
2023-12-16T01:11:10.505Z,6.67
2023-12-16T01:12:10.514Z,6.70
2023-12-16T01:13:10.518Z,6.67
2023-12-16T01:14:10.473Z,6.70
2023-12-16T01:15:10.457Z,6.66
2023-12-16T01:16:10.473Z,6.66
2023-12-16T01:17:10.460Z,6.59
2023-12-16T01:18:10.479Z,6.59
2023-12-16T01:19:10.499Z,6.67
2023-12-16T01:20:10.402Z,6.59
2023-12-16T01:21:10.401Z,6.62
2023-12-16T01:22:10.428Z,6.54
2023-12-16T01:23:10.367Z,6.59
2023-12-16T01:24:10.363Z,6.60
2023-12-16T01:25:10.387Z,6.60
2023-12-16T01:26:10.350Z,6.64
2023-12-16T01:27:10.322Z,6.64
2023-12-16T01:28:10.399Z,6.59
2023-12-16T01:29:10.305Z,6.57
2023-12-16T01:30:10.402Z,6.62
2023-12-16T01:31:10.420Z,6.66
2023-12-16T01:32:10.282Z,6.62
2023-12-16T01:33:10.347Z,6.64
2023-12-16T01:34:10.312Z,6.64
2023-12-16T01:35:10.262Z,6.62
2023-12-16T01:36:10.250Z,6.70
2023-12-16T01:37:10.253Z,6.60
2023-12-16T01:38:10.205Z,6.60
2023-12-16T01:39:10.200Z,6.64
2023-12-16T01:40:10.222Z,6.63
2023-12-16T01:41:10.246Z,6.70
2023-12-16T01:42:10.161Z,6.57
2023-12-16T01:43:10.199Z,6.59
2023-12-16T01:44:10.144Z,6.75
2023-12-16T01:45:10.131Z,6.64
2023-12-16T01:46:10.188Z,6.56
2023-12-16T01:47:10.236Z,6.67
2023-12-16T01:48:10.161Z,6.57
2023-12-16T01:49:10.189Z,6.64
2023-12-16T01:50:10.163Z,6.66
2023-12-16T01:51:10.056Z,6.62
2023-12-16T01:52:10.073Z,6.74
2023-12-16T01:53:10.041Z,6.63
2023-12-16T01:54:10.050Z,6.63
2023-12-16T01:55:10.084Z,6.66
2023-12-16T01:56:10.009Z,6.67
2023-12-16T01:57:10.003Z,6.67
2023-12-16T01:58:10.065Z,6.64
2023-12-16T01:59:09.976Z,6.78
2023-12-16T02:00:09.963Z,6.75
2023-12-16T02:01:10.034Z,6.64
2023-12-16T02:02:09.944Z,6.78
2023-12-16T02:03:09.957Z,6.75
2023-12-16T02:04:10.017Z,6.75
2023-12-16T02:05:09.920Z,6.74
2023-12-16T02:06:09.944Z,6.87
2023-12-16T02:07:09.926Z,6.79
2023-12-16T02:08:09.881Z,6.84
2023-12-16T02:09:09.867Z,6.84
2023-12-16T02:10:09.904Z,6.81
2023-12-16T02:11:09.848Z,6.75
2023-12-16T02:12:09.834Z,6.84
2023-12-16T02:13:09.876Z,6.81
2023-12-16T02:14:09.809Z,6.77
2023-12-16T02:15:09.798Z,6.74
2023-12-16T02:16:09.852Z,6.82
2023-12-16T02:17:09.772Z,6.85
2023-12-16T02:18:09.876Z,6.82
2023-12-16T02:19:09.812Z,6.75
2023-12-16T02:20:09.842Z,6.75
2023-12-16T02:21:09.741Z,6.78
2023-12-16T02:22:09.778Z,6.75
2023-12-16T02:23:09.711Z,6.72
2023-12-16T02:24:09.704Z,6.81
2023-12-16T02:25:09.731Z,6.72
2023-12-16T02:26:09.679Z,6.79
2023-12-16T02:27:09.692Z,6.74
2023-12-16T02:28:09.707Z,6.84
2023-12-16T02:29:09.645Z,6.78
2023-12-16T02:30:09.670Z,6.87
2023-12-16T02:31:09.749Z,6.79
2023-12-16T02:32:09.613Z,6.87
2023-12-16T02:33:09.695Z,6.77
2023-12-16T02:34:09.628Z,6.72
2023-12-16T02:35:09.578Z,6.87
2023-12-16T02:36:09.563Z,6.82
2023-12-16T02:37:09.589Z,6.82
2023-12-16T02:38:09.551Z,6.78
2023-12-16T02:39:09.536Z,6.82
2023-12-16T02:40:09.583Z,6.78
2023-12-16T02:41:09.517Z,6.82
2023-12-16T02:42:09.506Z,6.81
2023-12-16T02:43:09.527Z,6.66
2023-12-16T02:44:09.474Z,6.74
2023-12-16T02:45:09.490Z,6.72
2023-12-16T02:46:09.482Z,6.74
2023-12-16T02:47:09.450Z,6.60
2023-12-16T02:48:09.566Z,6.72
2023-12-16T02:49:09.461Z,6.60
2023-12-16T02:50:09.410Z,6.63
2023-12-16T02:51:09.403Z,6.62
2023-12-16T02:52:09.419Z,6.75
2023-12-16T02:53:09.399Z,6.56
2023-12-16T02:54:09.371Z,6.56
2023-12-16T02:55:09.430Z,6.62
2023-12-16T02:56:09.370Z,6.63
2023-12-16T02:57:09.328Z,6.51
2023-12-16T02:58:09.351Z,6.57
2023-12-16T02:59:09.310Z,6.57
2023-12-16T03:00:09.317Z,6.59
2023-12-16T03:01:09.389Z,6.62
2023-12-16T03:02:09.293Z,6.56
2023-12-16T03:03:09.309Z,6.60
2023-12-16T03:04:09.316Z,6.60
2023-12-16T03:05:09.270Z,6.57
2023-12-16T03:06:09.235Z,6.59
2023-12-16T03:07:09.319Z,6.52
2023-12-16T03:08:09.216Z,6.45
2023-12-16T03:09:09.210Z,6.62
2023-12-16T03:10:09.231Z,6.59
2023-12-16T03:11:09.180Z,6.56
2023-12-16T03:12:09.180Z,6.63
2023-12-16T03:13:09.179Z,6.63
2023-12-16T03:14:09.159Z,6.66
2023-12-16T03:15:09.195Z,6.66
2023-12-16T03:16:09.148Z,6.64
2023-12-16T03:17:09.114Z,6.56
2023-12-16T03:18:09.115Z,6.54
2023-12-16T03:19:09.153Z,6.62
2023-12-16T03:20:09.095Z,6.64
2023-12-16T03:21:09.068Z,6.64
2023-12-16T03:22:09.102Z,6.49
2023-12-16T03:23:09.049Z,6.59
2023-12-16T03:24:09.044Z,6.49
2023-12-16T03:25:09.038Z,6.48
2023-12-16T03:26:09.016Z,6.56
2023-12-16T03:27:09.003Z,6.56
2023-12-16T03:28:08.995Z,6.62
2023-12-16T03:29:08.978Z,6.46
2023-12-16T03:30:09.044Z,6.56
2023-12-16T03:31:09.083Z,6.54
2023-12-16T03:32:08.952Z,6.54
2023-12-16T03:33:09.018Z,6.60
2023-12-16T03:34:08.986Z,6.60
2023-12-16T03:35:08.931Z,6.63
2023-12-16T03:36:08.901Z,6.60
2023-12-16T03:37:08.920Z,6.62
2023-12-16T03:38:08.878Z,6.56
2023-12-16T03:39:08.884Z,6.62
2023-12-16T03:40:08.920Z,6.54
2023-12-16T03:41:08.906Z,6.67
2023-12-16T03:42:08.844Z,6.70
2023-12-16T03:43:08.873Z,6.70
2023-12-16T03:44:08.819Z,6.69
2023-12-16T03:45:08.812Z,6.74
2023-12-16T03:46:08.817Z,6.74
2023-12-16T03:47:08.789Z,6.74
2023-12-16T03:48:08.824Z,6.74
2023-12-16T03:49:08.874Z,6.70
2023-12-16T03:50:08.805Z,6.66
2023-12-16T03:51:08.754Z,6.72
2023-12-16T03:52:08.777Z,6.74
2023-12-16T03:53:08.714Z,6.70
2023-12-16T03:54:08.707Z,6.78
2023-12-16T03:55:08.727Z,6.77
2023-12-16T03:56:08.687Z,6.75
2023-12-16T03:57:08.672Z,6.79
2023-12-16T03:58:08.678Z,6.82
2023-12-16T03:59:08.658Z,6.77
2023-12-16T04:00:08.654Z,6.79
2023-12-16T04:01:08.682Z,6.70
2023-12-16T04:02:08.653Z,6.78
2023-12-16T04:03:08.688Z,6.79
2023-12-16T04:04:08.730Z,6.77
2023-12-16T04:05:08.643Z,6.79
2023-12-16T04:06:08.574Z,6.70
2023-12-16T04:07:08.600Z,6.77
2023-12-16T04:08:08.551Z,6.70
2023-12-16T04:09:08.538Z,6.75
2023-12-16T04:10:08.547Z,6.70
2023-12-16T04:11:08.526Z,6.78
2023-12-16T04:12:08.506Z,6.74
2023-12-16T04:13:08.542Z,6.77
2023-12-16T04:14:08.490Z,6.78
2023-12-16T04:15:08.478Z,6.78
2023-12-16T04:16:08.483Z,6.78
2023-12-16T04:17:08.461Z,6.78
2023-12-16T04:18:08.483Z,6.78
2023-12-16T04:19:08.469Z,6.88
2023-12-16T04:20:08.438Z,6.81
2023-12-16T04:21:08.414Z,6.78
2023-12-16T04:22:08.467Z,6.82
2023-12-16T04:23:08.386Z,6.84
2023-12-16T04:24:08.376Z,6.77
2023-12-16T04:25:08.424Z,6.78
2023-12-16T04:26:08.834Z,6.92
2023-12-16T04:27:08.342Z,6.84
2023-12-16T04:28:08.370Z,6.84
2023-12-16T04:29:08.316Z,6.85
2023-12-16T04:30:08.323Z,6.93
2023-12-16T04:31:08.358Z,6.89
2023-12-16T04:32:08.302Z,6.81
2023-12-16T04:33:08.383Z,6.95
2023-12-16T04:34:08.434Z,6.88
2023-12-16T04:35:08.273Z,6.92
2023-12-16T04:36:08.238Z,6.84
2023-12-16T04:37:08.279Z,6.85
2023-12-16T04:38:08.221Z,6.87
2023-12-16T04:39:08.209Z,6.89
2023-12-16T04:40:08.260Z,6.93
2023-12-16T04:41:08.187Z,6.82
2023-12-16T04:42:08.174Z,6.82
2023-12-16T04:43:08.224Z,6.84
2023-12-16T04:44:08.165Z,6.85
2023-12-16T04:45:08.175Z,6.85
2023-12-16T04:46:08.194Z,6.92
2023-12-16T04:47:08.121Z,6.79
2023-12-16T04:48:08.288Z,6.78
2023-12-16T04:49:08.313Z,6.81
2023-12-16T04:50:08.120Z,6.84
2023-12-16T04:51:08.179Z,6.78
2023-12-16T04:52:08.137Z,6.84
2023-12-16T04:53:08.084Z,6.87
2023-12-16T04:54:08.068Z,6.84
2023-12-16T04:55:08.157Z,6.87
2023-12-16T04:56:08.029Z,6.87
2023-12-16T04:57:08.090Z,6.78
2023-12-16T04:58:08.169Z,6.74
2023-12-16T04:59:07.986Z,6.84
2023-12-16T05:00:08.028Z,6.82
2023-12-16T05:01:08.100Z,6.82
2023-12-16T05:02:08.084Z,6.88
2023-12-16T05:03:08.010Z,6.82
2023-12-16T05:04:08.021Z,6.77
2023-12-16T05:05:07.942Z,6.78
2023-12-16T05:06:07.969Z,6.78
2023-12-16T05:07:08.059Z,6.84
2023-12-16T05:08:07.911Z,6.84
2023-12-16T05:09:07.885Z,6.84
2023-12-16T05:10:07.888Z,6.85
2023-12-16T05:11:07.871Z,6.70
2023-12-16T05:12:07.849Z,6.72
2023-12-16T05:13:07.840Z,6.72
2023-12-16T05:14:07.845Z,6.64
2023-12-16T05:15:07.862Z,6.63
2023-12-16T05:16:09.724Z,6.64
2023-12-16T05:17:07.794Z,6.77
2023-12-16T05:18:07.963Z,6.70
2023-12-16T05:19:07.921Z,6.59
2023-12-16T05:20:07.795Z,6.63
2023-12-16T05:21:07.763Z,6.66
2023-12-16T05:22:07.744Z,6.62
2023-12-16T05:23:07.724Z,6.62
2023-12-16T05:24:07.717Z,6.64
2023-12-16T05:25:07.744Z,6.62
2023-12-16T05:26:07.693Z,6.69
2023-12-16T05:27:07.681Z,6.64
2023-12-16T05:28:07.733Z,6.63
2023-12-16T05:29:07.660Z,6.60
2023-12-16T05:30:10.332Z,6.35
2023-12-16T05:31:07.742Z,6.48
2023-12-16T05:32:07.623Z,6.52
2023-12-16T05:33:07.679Z,6.33
2023-12-16T05:34:07.692Z,6.42
2023-12-16T05:35:07.594Z,6.41
2023-12-16T05:36:07.650Z,6.36
2023-12-16T05:37:07.605Z,6.48
2023-12-16T05:38:07.569Z,6.38
2023-12-16T05:39:07.563Z,6.26
2023-12-16T05:40:07.588Z,6.39
2023-12-16T05:41:07.542Z,6.38
2023-12-16T05:42:07.508Z,6.35
2023-12-16T05:43:07.532Z,6.38
2023-12-16T05:44:07.493Z,6.31
2023-12-16T05:45:07.493Z,6.31
2023-12-16T05:46:07.525Z,6.39
2023-12-16T05:47:07.455Z,6.31
2023-12-16T05:48:07.478Z,6.30
2023-12-16T05:49:07.467Z,6.26
2023-12-16T05:50:07.430Z,6.30
2023-12-16T05:51:07.428Z,6.44
2023-12-16T05:52:07.448Z,6.38
2023-12-16T05:53:07.435Z,6.33
2023-12-16T05:54:07.378Z,6.45
2023-12-16T05:55:07.386Z,6.45
2023-12-16T05:56:07.417Z,6.42
2023-12-16T05:57:07.348Z,6.48
2023-12-16T05:58:07.340Z,6.39
2023-12-16T05:59:07.343Z,6.44
2023-12-16T06:00:07.309Z,6.45
2023-12-16T06:01:07.397Z,6.51
2023-12-16T06:02:07.286Z,6.46
2023-12-16T06:03:07.339Z,6.46
2023-12-16T06:04:07.292Z,6.63
2023-12-16T06:05:07.261Z,6.59
2023-12-16T06:06:07.242Z,6.44
2023-12-16T06:07:07.279Z,6.49
2023-12-16T06:08:07.220Z,6.62
2023-12-16T06:09:07.226Z,6.64
2023-12-16T06:10:08.220Z,6.52
2023-12-16T06:11:07.184Z,6.60
2023-12-16T06:12:07.209Z,6.57
2023-12-16T06:13:07.184Z,6.49
2023-12-16T06:14:07.182Z,6.52
2023-12-16T06:15:07.160Z,6.59
2023-12-16T06:16:16.179Z,6.66
2023-12-16T06:17:07.147Z,6.59
2023-12-16T06:18:07.117Z,6.62
2023-12-16T06:19:07.225Z,6.63
2023-12-16T06:20:07.118Z,6.69
2023-12-16T06:21:07.097Z,6.70
2023-12-16T06:22:07.089Z,6.66
2023-12-16T06:23:07.047Z,6.66
2023-12-16T06:24:07.041Z,6.60
2023-12-16T06:25:07.064Z,6.62
2023-12-16T06:26:07.021Z,6.63
2023-12-16T06:27:07.004Z,6.60
2023-12-16T06:28:07.011Z,6.70
2023-12-16T06:29:06.979Z,6.70
2023-12-16T06:30:06.999Z,6.72
2023-12-16T06:31:07.053Z,6.70
2023-12-16T06:32:06.949Z,6.77
2023-12-16T06:33:07.044Z,6.66
2023-12-16T06:34:07.001Z,6.62
2023-12-16T06:35:06.916Z,6.64
2023-12-16T06:36:06.908Z,6.79
2023-12-16T06:37:06.935Z,6.75
2023-12-16T06:38:06.886Z,6.74
2023-12-16T06:39:06.873Z,6.70
2023-12-16T06:40:06.876Z,6.72
2023-12-16T06:41:06.905Z,6.70
2023-12-16T06:42:06.833Z,6.78
2023-12-16T06:43:06.830Z,6.78
2023-12-16T06:44:06.820Z,6.70
2023-12-16T06:45:06.800Z,6.66
2023-12-16T06:46:06.843Z,6.70
2023-12-16T06:47:06.795Z,6.70
2023-12-16T06:48:06.870Z,6.72
2023-12-16T06:49:06.813Z,6.63
2023-12-16T06:50:06.744Z,6.74
2023-12-16T06:51:06.737Z,6.72
2023-12-16T06:52:06.765Z,6.77
2023-12-16T06:53:06.717Z,6.70
2023-12-16T06:54:06.702Z,6.67
2023-12-16T06:55:06.728Z,6.77
2023-12-16T06:56:06.682Z,6.74
2023-12-16T06:57:06.664Z,6.66
2023-12-16T06:58:06.692Z,6.74
2023-12-16T06:59:06.648Z,6.69
2023-12-16T07:00:06.632Z,6.70
2023-12-16T07:01:06.671Z,6.75
2023-12-16T07:02:06.683Z,6.72
2023-12-16T07:03:06.611Z,6.84
2023-12-16T07:04:06.651Z,6.72
2023-12-16T07:05:06.577Z,6.70
2023-12-16T07:06:06.651Z,6.79
2023-12-16T07:07:06.585Z,6.72
2023-12-16T07:08:06.546Z,6.79
2023-12-16T07:09:06.570Z,6.75
2023-12-16T07:10:06.562Z,6.79
2023-12-16T07:11:06.515Z,6.70
2023-12-16T07:12:06.503Z,6.72
2023-12-16T07:13:06.519Z,6.79
2023-12-16T07:14:06.479Z,6.74
2023-12-16T07:15:06.471Z,6.67
2023-12-16T07:16:06.490Z,6.81
2023-12-16T07:17:06.450Z,6.75
2023-12-16T07:18:06.550Z,6.84
2023-12-16T07:19:06.512Z,6.81
2023-12-16T07:20:06.474Z,6.81
2023-12-16T07:21:06.405Z,6.84
2023-12-16T07:22:06.442Z,6.74
2023-12-16T07:23:06.397Z,6.85
2023-12-16T07:24:06.375Z,6.84
2023-12-16T07:25:06.413Z,6.81
2023-12-16T07:26:06.349Z,6.84
2023-12-16T07:27:06.348Z,6.70
2023-12-16T07:28:06.356Z,6.88
2023-12-16T07:29:06.332Z,6.92
2023-12-16T07:30:06.344Z,6.89
2023-12-16T07:31:06.396Z,6.88
2023-12-16T07:32:06.412Z,6.93
2023-12-16T07:33:06.414Z,6.88
2023-12-16T07:34:06.389Z,6.81
2023-12-16T07:35:06.283Z,6.81
2023-12-16T07:36:06.235Z,6.88
2023-12-16T07:37:06.292Z,6.85
2023-12-16T07:38:06.215Z,6.82
2023-12-16T07:39:06.206Z,6.84
2023-12-16T07:40:06.229Z,6.95
2023-12-16T07:41:06.199Z,7.02
2023-12-16T07:42:06.170Z,6.88
2023-12-16T07:43:06.169Z,6.99
2023-12-16T07:44:06.150Z,6.88
2023-12-16T07:45:06.138Z,6.85
2023-12-16T07:46:06.184Z,6.87
2023-12-16T07:47:06.113Z,6.95
2023-12-16T07:48:06.194Z,6.85
2023-12-16T07:49:06.158Z,6.93
2023-12-16T07:50:06.074Z,6.89
2023-12-16T07:51:06.066Z,6.89
2023-12-16T07:52:06.080Z,6.95
2023-12-16T07:53:06.053Z,6.95
2023-12-16T07:54:06.033Z,6.87
2023-12-16T07:55:06.109Z,6.97
2023-12-16T07:56:06.014Z,6.92
2023-12-16T07:57:06.004Z,6.88
2023-12-16T07:58:06.035Z,6.97
2023-12-16T07:59:05.984Z,7.06
2023-12-16T08:00:05.973Z,6.97
2023-12-16T08:01:06.060Z,6.97
2023-12-16T08:02:05.998Z,6.97
2023-12-16T08:03:06.011Z,6.96
2023-12-16T08:04:05.944Z,7.03
2023-12-16T08:05:05.916Z,7.00
2023-12-16T08:06:05.916Z,7.00
2023-12-16T08:07:05.926Z,6.97
2023-12-16T08:08:05.882Z,7.02
2023-12-16T08:09:05.881Z,7.02
2023-12-16T08:10:05.889Z,7.02
2023-12-16T08:11:05.844Z,6.99
2023-12-16T08:12:05.838Z,7.00
2023-12-16T08:13:05.871Z,7.03
2023-12-16T08:14:05.819Z,7.00
2023-12-16T08:15:05.813Z,7.10
2023-12-16T08:16:05.813Z,7.11
2023-12-16T08:17:05.783Z,7.11
2023-12-16T08:18:05.815Z,7.14
2023-12-16T08:19:06.003Z,7.15
2023-12-16T08:20:05.970Z,7.14
2023-12-16T08:21:05.739Z,7.13
2023-12-16T08:22:05.784Z,7.15
2023-12-16T08:23:05.740Z,7.15
2023-12-16T08:24:05.728Z,7.13
2023-12-16T08:25:05.737Z,7.06
2023-12-16T08:26:05.712Z,7.18
2023-12-16T08:27:05.689Z,7.25
2023-12-16T08:28:05.720Z,7.15
2023-12-16T08:29:05.654Z,7.17
2023-12-16T08:30:05.663Z,7.21
2023-12-16T08:31:05.733Z,7.11
2023-12-16T08:32:05.635Z,7.20
2023-12-16T08:33:05.770Z,7.20
2023-12-16T08:34:05.906Z,7.25
2023-12-16T08:35:05.806Z,7.32
2023-12-16T08:36:05.584Z,7.18
2023-12-16T08:37:05.583Z,7.33
2023-12-16T08:38:05.561Z,7.15
2023-12-16T08:39:05.546Z,7.29
2023-12-16T08:40:05.613Z,7.29
2023-12-16T08:41:05.523Z,7.33
2023-12-16T08:42:06.410Z,7.25
2023-12-16T08:43:05.599Z,7.33
2023-12-16T08:44:05.487Z,7.42
2023-12-16T08:45:05.482Z,7.40
2023-12-16T08:46:05.522Z,7.45
2023-12-16T08:47:05.472Z,7.43
2023-12-16T08:48:05.656Z,7.47
2023-12-16T08:49:05.514Z,7.51
2023-12-16T08:50:05.512Z,7.51
2023-12-16T08:51:05.436Z,7.51
2023-12-16T08:52:05.454Z,7.43
2023-12-16T08:53:05.424Z,7.56
2023-12-16T08:54:05.451Z,7.60
2023-12-16T08:55:05.517Z,7.56
2023-12-16T08:56:05.430Z,7.57
2023-12-16T08:57:05.392Z,7.56
2023-12-16T08:58:05.511Z,7.63
2023-12-16T08:59:05.432Z,7.61
2023-12-16T09:00:05.320Z,7.61
2023-12-16T09:01:05.492Z,7.67
2023-12-16T09:02:05.329Z,7.61
2023-12-16T09:03:05.336Z,7.63
2023-12-16T09:04:05.370Z,7.67
2023-12-16T09:05:05.273Z,7.66
2023-12-16T09:06:05.312Z,7.67
2023-12-16T09:07:05.277Z,7.66
2023-12-16T09:08:05.241Z,7.57
2023-12-16T09:09:05.226Z,7.58
2023-12-16T09:10:05.220Z,7.72
2023-12-16T09:11:05.222Z,7.56
2023-12-16T09:12:05.198Z,7.66
2023-12-16T09:13:05.346Z,7.66
2023-12-16T09:14:05.174Z,7.69
2023-12-16T09:15:05.178Z,7.66
2023-12-16T09:16:05.188Z,7.67
2023-12-16T09:17:05.145Z,7.69
2023-12-16T09:18:05.194Z,7.66
2023-12-16T09:19:05.284Z,7.69
2023-12-16T09:20:05.230Z,7.66
2023-12-16T09:21:05.113Z,7.72
2023-12-16T09:22:05.105Z,7.66
2023-12-16T09:23:05.084Z,7.82
2023-12-16T09:24:05.076Z,7.66
2023-12-16T09:25:05.093Z,7.76
2023-12-16T09:26:05.088Z,7.73
2023-12-16T09:27:05.039Z,7.75
2023-12-16T09:28:05.085Z,7.69
2023-12-16T09:29:05.199Z,7.70
2023-12-16T09:30:05.068Z,7.72
2023-12-16T09:31:05.103Z,7.73
2023-12-16T09:32:04.985Z,7.80
2023-12-16T09:33:05.057Z,7.83
2023-12-16T09:34:05.068Z,7.79
2023-12-16T09:35:04.955Z,7.82
2023-12-16T09:36:04.939Z,7.97
2023-12-16T09:37:04.967Z,7.87
2023-12-16T09:38:04.934Z,7.85
2023-12-16T09:39:04.903Z,7.83
2023-12-16T09:40:04.955Z,7.87
2023-12-16T09:41:04.888Z,7.95
2023-12-16T09:42:04.883Z,7.83
2023-12-16T09:43:04.903Z,8.00
2023-12-16T09:44:04.851Z,7.95
2023-12-16T09:45:04.876Z,7.93
2023-12-16T09:46:04.886Z,7.98
2023-12-16T09:47:04.822Z,7.97
2023-12-16T09:48:04.905Z,7.97
2023-12-16T09:49:04.909Z,7.93
2023-12-16T09:50:04.900Z,7.97
2023-12-16T09:51:04.781Z,7.95
2023-12-16T09:52:04.813Z,7.98
2023-12-16T09:53:04.762Z,7.98
2023-12-16T09:54:04.756Z,7.94
2023-12-16T09:55:04.789Z,7.97
2023-12-16T09:56:04.734Z,7.98
2023-12-16T09:57:04.723Z,8.00
2023-12-16T09:58:04.811Z,8.15
2023-12-16T09:59:04.697Z,8.01
2023-12-16T10:00:04.693Z,8.12
2023-12-16T10:01:04.716Z,8.09
2023-12-16T10:02:04.724Z,7.95
2023-12-16T10:03:04.873Z,8.03
2023-12-16T10:04:04.653Z,7.95
2023-12-16T10:05:04.659Z,8.00
2023-12-16T10:06:04.626Z,7.95
2023-12-16T10:07:04.676Z,8.01
2023-12-16T10:08:04.606Z,7.83
2023-12-16T10:09:04.606Z,7.85
2023-12-16T10:10:04.648Z,7.73
2023-12-16T10:11:12.243Z,7.80
2023-12-16T10:12:04.563Z,7.72
2023-12-16T10:13:04.620Z,7.63
2023-12-16T10:14:04.550Z,7.67
2023-12-16T10:15:04.576Z,7.66
2023-12-16T10:16:04.543Z,7.67
2023-12-16T10:17:04.520Z,7.66
2023-12-16T10:18:04.635Z,7.73
2023-12-16T10:19:04.580Z,7.70
2023-12-16T10:20:04.511Z,7.75
2023-12-16T10:21:08.806Z,7.83
2023-12-16T10:22:04.529Z,7.76
2023-12-16T10:23:04.555Z,7.77
2023-12-16T10:24:04.440Z,7.69
2023-12-16T10:25:04.493Z,7.72
2023-12-16T10:26:04.416Z,7.90
2023-12-16T10:27:04.409Z,7.85
2023-12-16T10:28:04.552Z,7.88
2023-12-16T10:29:04.386Z,7.85
2023-12-16T10:30:09.629Z,7.97
2023-12-16T10:31:04.449Z,7.91
2023-12-16T10:32:04.352Z,7.85
2023-12-16T10:33:04.429Z,7.90
2023-12-16T10:34:04.416Z,7.97
2023-12-16T10:35:04.372Z,7.91
2023-12-16T10:36:04.316Z,7.98
2023-12-16T10:37:04.345Z,8.12
2023-12-16T10:38:04.301Z,8.05
2023-12-16T10:39:04.283Z,8.03
2023-12-16T10:40:04.373Z,8.13
2023-12-16T10:41:04.284Z,8.13
2023-12-16T10:42:04.277Z,8.03
2023-12-16T10:43:04.294Z,8.12
2023-12-16T10:44:04.235Z,8.23
2023-12-16T10:45:04.225Z,8.16
2023-12-16T10:46:04.223Z,8.24
2023-12-16T10:47:04.207Z,8.23
2023-12-16T10:48:04.542Z,8.31
2023-12-16T10:49:04.283Z,8.28
2023-12-16T10:50:04.220Z,8.31
2023-12-16T10:51:04.166Z,8.28
2023-12-16T10:52:04.175Z,8.33
2023-12-16T10:53:04.137Z,8.33
2023-12-16T10:54:04.127Z,8.33
2023-12-16T10:55:04.191Z,8.42
2023-12-16T10:56:04.180Z,8.33
2023-12-16T10:57:04.097Z,8.41
2023-12-16T10:58:04.117Z,8.37
2023-12-16T10:59:04.076Z,8.48
2023-12-16T11:00:04.066Z,8.48
2023-12-16T11:01:04.078Z,8.46
2023-12-16T11:02:04.073Z,8.51
2023-12-16T11:03:04.053Z,8.48
2023-12-16T11:04:04.037Z,8.51
2023-12-16T11:05:04.097Z,8.53
2023-12-16T11:06:03.999Z,8.61
2023-12-16T11:07:04.002Z,8.56
2023-12-16T11:08:03.981Z,8.52
2023-12-16T11:09:03.969Z,8.51
2023-12-16T11:10:03.991Z,8.48
2023-12-16T11:11:03.970Z,8.60
2023-12-16T11:12:03.942Z,8.63
2023-12-16T11:13:03.948Z,8.58
2023-12-16T11:14:03.926Z,8.61
2023-12-16T11:15:03.956Z,8.63
2023-12-16T11:16:03.964Z,8.61
2023-12-16T11:17:03.891Z,8.61
2023-12-16T11:18:04.060Z,8.63
2023-12-16T11:19:03.901Z,8.64
2023-12-16T11:20:03.948Z,8.67
2023-12-16T11:21:03.966Z,8.66
2023-12-16T11:22:03.857Z,8.63
2023-12-16T11:23:03.829Z,8.66
2023-12-16T11:24:03.814Z,8.71
2023-12-16T11:25:03.824Z,8.71
2023-12-16T11:26:03.986Z,8.70
2023-12-16T11:27:03.787Z,8.71
2023-12-16T11:28:03.790Z,8.70
2023-12-16T11:29:03.771Z,8.73
2023-12-16T11:30:03.753Z,8.73
2023-12-16T11:31:03.978Z,8.67
2023-12-16T11:32:03.736Z,8.63
2023-12-16T11:33:03.800Z,8.67
2023-12-16T11:34:03.824Z,8.67
2023-12-16T11:35:03.800Z,8.61
2023-12-16T11:36:03.697Z,8.58
2023-12-16T11:37:03.939Z,8.61
2023-12-16T11:38:03.702Z,8.60
2023-12-16T11:39:03.663Z,8.61
2023-12-16T11:40:03.682Z,8.58
2023-12-16T11:41:03.648Z,8.49
2023-12-16T11:42:03.634Z,8.49
2023-12-16T11:43:03.759Z,8.58
2023-12-16T11:44:03.624Z,8.56
2023-12-16T11:45:03.606Z,8.52
2023-12-16T11:46:03.650Z,8.60
2023-12-16T11:47:03.586Z,8.56
2023-12-16T11:48:03.606Z,8.49
2023-12-16T11:49:03.718Z,8.55
2023-12-16T11:50:03.612Z,8.49
2023-12-16T11:51:03.541Z,8.61
2023-12-16T11:52:03.612Z,8.53
2023-12-16T11:53:03.523Z,8.61
2023-12-16T11:54:03.518Z,8.53
2023-12-16T11:55:03.561Z,8.58
2023-12-16T11:56:03.494Z,8.55
2023-12-16T11:57:03.482Z,8.63
2023-12-16T11:58:03.489Z,8.61
2023-12-16T11:59:03.461Z,8.61
2023-12-16T12:00:03.476Z,8.61
2023-12-16T12:01:03.484Z,8.64
2023-12-16T12:02:03.482Z,8.71
2023-12-16T12:03:05.132Z,8.64
2023-12-16T12:04:03.564Z,8.69
2023-12-16T12:05:03.513Z,8.71
2023-12-16T12:06:03.413Z,8.70
2023-12-16T12:07:03.442Z,8.76
2023-12-16T12:08:03.403Z,8.73
2023-12-16T12:09:03.380Z,8.76
2023-12-16T12:10:03.405Z,8.79
2023-12-16T12:11:03.337Z,8.67
2023-12-16T12:12:03.334Z,8.61
2023-12-16T12:13:03.388Z,8.66
2023-12-16T12:14:03.315Z,8.67
2023-12-16T12:15:03.303Z,8.60
2023-12-16T12:16:03.337Z,8.64
2023-12-16T12:17:03.282Z,8.60
2023-12-16T12:18:03.457Z,8.70
2023-12-16T12:19:03.431Z,8.63
2023-12-16T12:20:03.263Z,8.66
2023-12-16T12:21:03.247Z,8.64
2023-12-16T12:22:03.250Z,8.61
2023-12-16T12:23:04.554Z,8.56
2023-12-16T12:24:03.244Z,8.53
2023-12-16T12:25:03.246Z,8.49
2023-12-16T12:26:03.234Z,8.48
2023-12-16T12:27:03.184Z,8.55
2023-12-16T12:28:03.173Z,8.58
2023-12-16T12:29:04.908Z,8.48
2023-12-16T12:30:03.204Z,8.52
2023-12-16T12:31:03.240Z,8.53
2023-12-16T12:32:03.154Z,8.48
2023-12-16T12:33:03.187Z,8.45
2023-12-16T12:34:03.233Z,8.49
2023-12-16T12:35:06.419Z,8.53
2023-12-16T12:36:03.133Z,8.51
2023-12-16T12:37:03.097Z,8.61
2023-12-16T12:38:03.078Z,8.56
2023-12-16T12:39:03.090Z,8.60
2023-12-16T12:40:03.062Z,8.60
2023-12-16T12:41:04.485Z,8.69
2023-12-16T12:42:03.422Z,8.64
2023-12-16T12:43:03.043Z,8.66
2023-12-16T12:44:03.013Z,8.63
2023-12-16T12:45:03.064Z,8.64
2023-12-16T12:46:02.993Z,8.63
2023-12-16T12:47:03.214Z,8.61
2023-12-16T12:48:03.050Z,8.63
2023-12-16T12:49:03.103Z,8.69
2023-12-16T12:50:02.955Z,8.66
2023-12-16T12:51:03.008Z,8.61
2023-12-16T12:52:02.936Z,8.64
2023-12-16T12:53:20.097Z,8.64
2023-12-16T12:54:03.147Z,8.67
2023-12-16T12:55:02.901Z,8.64
2023-12-16T12:56:02.895Z,8.56
2023-12-16T12:57:03.006Z,8.64
2023-12-16T12:58:10.894Z,8.67
2023-12-16T12:59:02.870Z,8.66
2023-12-16T13:00:04.459Z,8.58
2023-12-16T13:01:03.206Z,8.67
2023-12-16T13:02:02.854Z,8.70
2023-12-16T13:03:02.849Z,8.73
2023-12-16T13:04:02.843Z,8.76
2023-12-16T13:05:02.838Z,8.69
2023-12-16T13:06:04.171Z,8.67
2023-12-16T13:07:02.800Z,8.70
2023-12-16T13:08:02.780Z,8.76
2023-12-16T13:09:02.788Z,8.79
2023-12-16T13:10:02.773Z,8.74
2023-12-16T13:11:02.747Z,8.76
2023-12-16T13:12:02.771Z,8.78
2023-12-16T13:13:02.722Z,8.79
2023-12-16T13:14:02.776Z,8.79
2023-12-16T13:15:02.801Z,8.76
2023-12-16T13:16:02.756Z,8.74
2023-12-16T13:17:02.695Z,8.76
2023-12-16T13:18:02.791Z,8.70